Time;durP1;ratioP1;P1;durP2;ratioP2;P2;SDS_P1;SDS_P2;PMS_P1;PMS_P2;Temp;Humidity;BMP_temperature;BMP_pressure;BME280_temperature;BME280_humidity;BME280_pressure;Samples;Min_cycle;Max_cycle;Signal;HPM_P1;HPM_P2
2024/04/20 00:01:08;;;;;;;4.10;0.60;;;6.70;99.90;;;;;;5420317;26;20417;-85
2024/04/20 00:03:34;;;;;;;3.53;0.80;;;6.70;99.90;;;;;;5418629;26;19996;-84
2024/04/20 00:06:05;;;;;;;4.60;0.60;;;6.70;99.90;;;;;;5419904;26;19995;-88
2024/04/20 00:08:31;;;;;;;5.73;1.13;;;6.70;99.90;;;;;;5447963;26;20455;-85
2024/04/20 00:11:06;;;;;;;2.47;0.87;;;6.70;99.90;;;;;;5420116;26;19999;-87
2024/04/20 00:13:32;;;;;;;3.43;0.63;;;6.70;99.90;;;;;;5448589;26;19995;-88
2024/04/20 00:15:57;;;;;;;3.47;0.70;;;6.80;99.90;;;;;;5448313;26;20027;-88
2024/04/20 00:18:23;;;;;;;2.87;0.53;;;6.70;99.90;;;;;;5419871;26;19995;-88
2024/04/20 00:20:49;;;;;;;1.87;0.60;;;6.70;99.90;;;;;;5420532;26;19995;-90
2024/04/20 00:23:14;;;;;;;2.63;0.73;;;6.60;99.90;;;;;;5420237;26;20006;-85
2024/04/20 00:25:40;;;;;;;2.63;0.67;;;6.80;99.90;;;;;;5448572;26;20320;-89
2024/04/20 00:28:06;;;;;;;2.47;0.60;;;6.70;99.90;;;;;;5447744;26;19999;-84
2024/04/20 00:30:32;;;;;;;2.47;0.53;;;6.70;99.90;;;;;;5447640;26;20363;-84
2024/04/20 00:32:58;;;;;;;2.33;0.90;;;6.70;99.90;;;;;;5419590;26;20068;-84
2024/04/20 00:35:25;;;;;;;5.23;0.70;;;6.70;99.90;;;;;;5417700;26;20000;-88
2024/04/20 00:37:51;;;;;;;2.23;0.70;;;6.70;99.90;;;;;;5418760;26;20010;-84
2024/04/20 00:40:16;;;;;;;3.53;0.60;;;6.70;99.90;;;;;;5417282;26;20435;-84
2024/04/20 00:42:43;;;;;;;1.97;0.80;;;6.60;99.90;;;;;;5446835;26;19995;-81
2024/04/20 00:45:09;;;;;;;6.63;0.60;;;6.60;99.90;;;;;;5419343;26;20411;-83
2024/04/20 00:47:36;;;;;;;2.53;0.80;;;6.60;99.90;;;;;;5417591;26;19995;-89
2024/04/20 00:50:04;;;;;;;2.40;0.70;;;6.60;99.90;;;;;;5448071;26;20338;-88
2024/04/20 00:52:30;;;;;;;3.03;0.60;;;6.60;99.90;;;;;;5417816;26;20041;-85
2024/04/20 00:54:57;;;;;;;2.57;0.67;;;6.60;99.90;;;;;;5448011;26;19995;-87
2024/04/20 00:57:23;;;;;;;1.67;0.40;;;6.60;99.90;;;;;;5419167;26;20440;-87
2024/04/20 00:59:50;;;;;;;2.60;0.53;;;6.50;99.90;;;;;;5447890;26;20004;-88
2024/04/20 01:02:16;;;;;;;2.10;0.50;;;6.60;99.90;;;;;;5446983;26;19999;-89
2024/04/20 01:04:41;;;;;;;4.13;0.50;;;6.50;99.90;;;;;;5447865;26;20019;-85
2024/04/20 01:07:07;;;;;;;3.07;0.50;;;6.50;99.90;;;;;;5419419;26;20021;-89
2024/04/20 01:09:33;;;;;;;2.93;0.50;;;6.50;99.90;;;;;;5446250;26;20018;-90
2024/04/20 01:11:58;;;;;;;2.20;0.40;;;6.50;99.90;;;;;;5446491;26;20008;-83
2024/04/20 01:14:24;;;;;;;1.57;0.60;;;6.50;99.90;;;;;;5447359;26;20006;-86
2024/04/20 01:16:49;;;;;;;1.17;0.50;;;6.50;99.90;;;;;;5418985;26;20000;-83
2024/04/20 01:19:21;;;;;;;2.30;0.50;;;6.40;99.90;;;;;;5447061;26;20450;-84
2024/04/20 01:21:47;;;;;;;2.77;0.80;;;6.40;99.90;;;;;;5419053;26;20040;-85
2024/04/20 01:24:15;;;;;;;4.20;0.40;;;6.40;99.90;;;;;;5446901;26;19995;-84
2024/04/20 01:26:41;;;;;;;2.33;0.40;;;6.40;99.90;;;;;;5446362;26;19995;-84
2024/04/20 01:29:08;;;;;;;1.03;0.40;;;6.40;99.90;;;;;;5417444;26;19991;-87
2024/04/20 01:31:33;;;;;;;3.00;0.50;;;6.40;99.90;;;;;;5416965;26;19995;-87
2024/04/20 01:33:59;;;;;;;2.30;0.63;;;6.30;99.90;;;;;;5419095;26;20007;-87
2024/04/20 01:36:25;;;;;;;3.63;0.60;;;6.30;99.90;;;;;;5418889;26;20011;-88
2024/04/20 01:38:53;;;;;;;4.83;0.83;;;6.30;99.90;;;;;;5418946;26;20457;-88
2024/04/20 01:41:19;;;;;;;4.73;0.50;;;6.40;99.90;;;;;;5446542;26;19999;-89
2024/04/20 01:43:45;;;;;;;1.77;0.63;;;6.10;99.90;;;;;;5418483;26;20328;-90
2024/04/20 01:46:11;;;;;;;2.43;0.40;;;6.20;99.90;;;;;;5418790;26;20014;-87
2024/04/20 01:48:36;;;;;;;1.40;0.50;;;6.20;99.90;;;;;;5416575;26;20060;-88
2024/04/20 01:51:02;;;;;;;4.43;1.27;;;6.20;99.90;;;;;;5446569;26;20011;-88
2024/04/20 01:53:28;;;;;;;4.23;0.93;;;6.20;99.90;;;;;;5446155;26;20028;-87
2024/04/20 01:55:53;;;;;;;2.10;0.40;;;6.30;99.90;;;;;;5417771;26;20462;-86
2024/04/20 01:58:19;;;;;;;1.60;0.50;;;6.30;99.90;;;;;;5446447;26;20007;-88
2024/04/20 02:00:44;;;;;;;2.30;0.60;;;6.20;99.90;;;;;;5416588;26;20066;-88
2024/04/20 02:03:11;;;;;;;2.77;0.50;;;6.20;99.90;;;;;;5418485;26;19999;-87
2024/04/20 02:05:38;;;;;;;6.67;0.80;;;6.20;99.90;;;;;;5418343;26;20006;-87
2024/04/20 02:08:04;;;;;;;2.30;0.70;;;6.20;99.90;;;;;;5416072;26;19999;-88
2024/04/20 02:10:29;;;;;;;4.27;0.70;;;6.20;99.90;;;;;;5417514;26;20071;-89
2024/04/20 02:12:55;;;;;;;2.97;0.70;;;6.20;99.90;;;;;;5446656;26;20431;-88
2024/04/20 02:15:21;;;;;;;2.77;0.70;;;6.20;99.90;;;;;;5414731;26;20467;-88
2024/04/20 02:17:46;;;;;;;2.10;0.60;;;6.20;99.90;;;;;;5446391;26;19992;-88
2024/04/20 02:20:12;;;;;;;4.10;0.60;;;6.30;99.90;;;;;;5418348;26;20092;-89
2024/04/20 02:22:38;;;;;;;3.30;0.60;;;6.20;99.90;;;;;;5417535;26;20042;-85
2024/04/20 02:25:04;;;;;;;7.63;1.27;;;6.20;99.90;;;;;;5417852;26;20002;-86
2024/04/20 02:27:29;;;;;;;3.47;0.50;;;6.20;99.90;;;;;;5417615;26;20066;-84
2024/04/20 02:29:55;;;;;;;4.43;0.73;;;6.20;99.90;;;;;;5417203;26;20459;-85
2024/04/20 02:32:20;;;;;;;3.53;0.50;;;6.20;99.90;;;;;;5417011;26;20004;-86
2024/04/20 02:34:48;;;;;;;5.93;1.03;;;6.20;99.90;;;;;;5417692;26;20454;-82
2024/04/20 02:37:13;;;;;;;2.37;0.50;;;6.10;99.90;;;;;;5417182;26;20006;-84
2024/04/20 02:39:39;;;;;;;5.07;1.20;;;6.10;99.90;;;;;;5445481;26;20001;-84
2024/04/20 02:42:06;;;;;;;4.03;0.60;;;6.20;99.90;;;;;;5417165;26;19996;-85
2024/04/20 02:44:31;;;;;;;5.33;0.57;;;6.10;99.90;;;;;;5446429;26;20420;-89
2024/04/20 02:46:57;;;;;;;3.67;0.50;;;6.00;99.90;;;;;;5446344;26;20015;-88
2024/04/20 02:49:23;;;;;;;4.07;0.87;;;6.10;99.90;;;;;;5445810;26;20008;-88
2024/04/20 02:51:49;;;;;;;5.53;0.50;;;6.10;99.90;;;;;;5445583;26;19995;-86
2024/04/20 02:54:16;;;;;;;3.33;0.50;;;6.10;99.90;;;;;;5445934;26;20339;-87
2024/04/20 02:56:42;;;;;;;4.90;0.50;;;6.10;99.90;;;;;;5445903;26;19992;-88
2024/04/20 02:59:07;;;;;;;2.50;0.50;;;6.10;99.90;;;;;;5417890;26;20014;-89
2024/04/20 03:01:33;;;;;;;3.97;0.50;;;6.10;99.90;;;;;;5417791;26;20000;-85
2024/04/20 03:03:59;;;;;;;6.40;0.70;;;6.10;99.90;;;;;;5444961;26;20007;-82
2024/04/20 03:06:24;;;;;;;4.07;0.50;;;6.10;99.90;;;;;;5415272;26;20007;-82
2024/04/20 03:08:51;;;;;;;4.40;0.90;;;6.10;99.90;;;;;;5444156;26;20068;-87
2024/04/20 03:11:17;;;;;;;4.73;0.50;;;6.00;99.90;;;;;;5445300;26;20006;-84
2024/04/20 03:13:43;;;;;;;5.20;0.70;;;6.10;99.90;;;;;;5444720;26;19995;-79
2024/04/20 03:16:09;;;;;;;4.53;0.60;;;6.10;99.90;;;;;;5416266;26;20062;-79
2024/04/20 03:18:35;;;;;;;5.27;0.57;;;6.10;99.90;;;;;;5444644;26;19995;-80
2024/04/20 03:21:07;;;;;;;2.40;0.30;;;6.10;99.90;;;;;;5444300;26;20018;-82
2024/04/20 03:23:35;;;;;;;4.63;0.43;;;6.10;99.90;;;;;;5444161;26;20039;-82
2024/04/20 03:26:01;;;;;;;3.17;0.40;;;6.00;99.90;;;;;;5415749;26;20000;-81
2024/04/20 03:28:26;;;;;;;2.50;0.40;;;6.10;99.90;;;;;;5419582;26;20451;-83
2024/04/20 03:30:52;;;;;;;4.57;0.70;;;6.00;99.90;;;;;;5448072;26;19991;-83
2024/04/20 03:33:20;;;;;;;2.77;0.40;;;6.00;99.90;;;;;;5448051;26;19999;-79
2024/04/20 03:35:45;;;;;;;7.93;0.67;;;5.90;99.90;;;;;;5447851;26;20006;-80
2024/04/20 03:38:11;;;;;;;5.53;0.70;;;6.00;99.90;;;;;;5419829;26;19995;-82
2024/04/20 03:40:37;;;;;;;6.87;0.60;;;6.00;99.90;;;;;;5417945;26;19999;-77
2024/04/20 03:43:02;;;;;;;5.43;0.53;;;5.90;99.90;;;;;;5417934;26;19999;-79
2024/04/20 03:45:28;;;;;;;7.50;0.50;;;5.90;99.90;;;;;;5419693;26;20339;-78
2024/04/20 03:47:54;;;;;;;5.87;0.70;;;6.00;99.90;;;;;;5447676;26;20064;-79
2024/04/20 03:50:20;;;;;;;6.87;0.60;;;5.90;99.90;;;;;;5419274;26;20422;-79
2024/04/20 03:52:47;;;;;;;4.47;0.50;;;5.90;99.90;;;;;;5447424;26;20007;-78
2024/04/20 03:55:14;;;;;;;6.47;0.80;;;5.90;99.90;;;;;;5447616;26;19999;-80
2024/04/20 03:57:39;;;;;;;4.00;0.67;;;5.90;99.90;;;;;;5447737;26;20006;-77
2024/04/20 04:00:07;;;;;;;11.03;1.03;;;5.90;99.90;;;;;;5417618;26;19995;-78
2024/04/20 04:02:32;;;;;;;5.70;0.80;;;5.90;99.90;;;;;;5447968;26;20027;-78
2024/04/20 04:04:58;;;;;;;7.50;0.93;;;5.90;99.90;;;;;;5446807;26;20027;-77
2024/04/20 04:07:23;;;;;;;9.23;0.93;;;5.90;99.90;;;;;;5447425;26;20011;-78
2024/04/20 04:09:49;;;;;;;5.87;1.03;;;6.00;99.90;;;;;;5446972;26;20419;-79
2024/04/20 04:12:15;;;;;;;7.47;1.20;;;5.90;99.90;;;;;;5417334;26;20010;-80
2024/04/20 04:14:40;;;;;;;7.17;0.80;;;6.00;99.90;;;;;;5447469;26;20010;-77
2024/04/20 04:17:06;;;;;;;10.83;1.00;;;6.00;99.90;;;;;;5416967;26;20014;-77
2024/04/20 04:19:32;;;;;;;9.60;0.90;;;6.10;99.90;;;;;;5416967;26;19992;-79
2024/04/20 04:21:59;;;;;;;9.47;0.90;;;6.00;99.90;;;;;;5419087;26;20010;-76
2024/04/20 04:24:25;;;;;;;8.80;1.10;;;6.00;99.90;;;;;;5419093;26;20007;-75
2024/04/20 04:26:51;;;;;;;9.30;0.97;;;6.10;99.90;;;;;;5419027;26;20010;-78
2024/04/20 04:29:17;;;;;;;7.57;0.80;;;6.10;99.90;;;;;;5419058;26;19999;-76
2024/04/20 04:31:43;;;;;;;5.87;0.90;;;6.10;99.90;;;;;;5446836;26;20000;-77
2024/04/20 04:34:09;;;;;;;6.73;0.83;;;6.10;99.90;;;;;;5446887;26;20580;-77
2024/04/20 04:36:35;;;;;;;6.13;0.90;;;6.10;99.90;;;;;;5416879;26;19999;-79
2024/04/20 04:39:02;;;;;;;11.87;1.50;;;6.10;99.90;;;;;;5418228;26;20097;-76
2024/04/20 04:41:28;;;;;;;6.70;0.90;;;6.10;99.90;;;;;;5447458;26;19999;-82
2024/04/20 04:43:53;;;;;;;6.23;0.73;;;6.10;99.90;;;;;;5418769;26;19996;-77
2024/04/20 04:46:19;;;;;;;5.93;1.10;;;6.10;99.90;;;;;;5414954;26;20012;-75
2024/04/20 04:48:45;;;;;;;5.50;0.60;;;6.10;99.90;;;;;;5416723;26;20339;-82
2024/04/20 04:51:10;;;;;;;6.70;0.77;;;6.10;99.90;;;;;;5418781;26;20014;-77
2024/04/20 04:53:36;;;;;;;1.97;0.40;;;6.10;99.90;;;;;;5418492;26;19999;-77
2024/04/20 04:56:01;;;;;;;3.50;0.50;;;6.10;99.90;;;;;;5418428;26;20042;-81
2024/04/20 04:58:27;;;;;;;5.33;0.70;;;6.10;99.90;;;;;;5416467;26;20014;-82
2024/04/20 05:00:53;;;;;;;4.97;0.57;;;6.10;99.90;;;;;;5416712;26;20007;-80
2024/04/20 05:03:18;;;;;;;5.07;0.60;;;6.00;99.90;;;;;;5416452;26;20080;-77
2024/04/20 05:05:51;;;;;;;5.53;0.60;;;6.00;99.90;;;;;;5416476;26;20508;-81
2024/04/20 05:08:16;;;;;;;6.70;0.50;;;6.00;99.90;;;;;;5415757;26;20009;-79
2024/04/20 05:10:42;;;;;;;3.13;0.50;;;6.10;99.90;;;;;;5416681;26;19999;-78
2024/04/20 05:13:08;;;;;;;2.83;0.40;;;6.00;99.90;;;;;;5416658;26;20084;-82
2024/04/20 05:15:34;;;;;;;6.63;0.97;;;6.10;99.90;;;;;;5416723;26;20003;-80
2024/04/20 05:18:00;;;;;;;3.90;0.40;;;5.90;99.90;;;;;;5416441;26;19999;-77
2024/04/20 05:20:25;;;;;;;3.13;0.50;;;6.00;99.90;;;;;;5418336;26;20006;-79
2024/04/20 05:22:51;;;;;;;3.50;0.50;;;6.00;99.90;;;;;;5418281;26;19995;-77
2024/04/20 05:25:17;;;;;;;6.07;0.50;;;6.10;99.90;;;;;;5418579;26;20000;-79
2024/04/20 05:27:42;;;;;;;3.33;0.60;;;6.10;99.90;;;;;;5418314;26;20000;-77
2024/04/20 05:30:09;;;;;;;8.17;0.50;;;6.10;99.90;;;;;;5418045;26;20328;-77
2024/04/20 05:32:34;;;;;;;5.50;0.70;;;6.10;99.90;;;;;;5416165;26;20027;-78
2024/04/20 05:35:00;;;;;;;3.23;0.47;;;6.10;99.90;;;;;;5418186;26;20011;-78
2024/04/20 05:37:26;;;;;;;4.03;0.40;;;6.10;99.90;;;;;;5416117;26;20074;-77
2024/04/20 05:39:51;;;;;;;3.43;0.50;;;6.10;99.90;;;;;;5418015;26;20439;-75
2024/04/20 05:42:17;;;;;;;5.13;0.60;;;6.10;99.90;;;;;;5416325;26;20003;-75
2024/04/20 05:44:42;;;;;;;4.80;0.63;;;6.20;99.90;;;;;;5418003;26;20006;-75
2024/04/20 05:47:08;;;;;;;7.13;0.67;;;6.20;99.90;;;;;;5415652;26;20488;-75
2024/04/20 05:49:38;;;;;;;5.50;0.53;;;6.30;99.90;;;;;;5421253;26;19999;-76
2024/04/20 05:52:04;;;;;;;9.53;0.73;;;6.20;99.90;;;;;;5433252;26;20476;-76
2024/04/20 05:54:29;;;;;;;4.37;0.50;;;6.20;99.90;;;;;;5424324;26;19995;-77
2024/04/20 05:56:55;;;;;;;6.13;0.53;;;6.20;99.90;;;;;;5417597;26;20077;-75
2024/04/20 05:59:20;;;;;;;4.93;0.47;;;6.20;99.90;;;;;;5445769;26;19996;-74
2024/04/20 06:01:46;;;;;;;1.77;0.50;;;6.20;99.90;;;;;;5415911;26;20013;-77
2024/04/20 06:04:12;;;;;;;8.37;0.50;;;6.30;99.90;;;;;;5417947;26;20455;-76
2024/04/20 06:06:37;;;;;;;3.03;0.40;;;6.30;99.90;;;;;;5445822;26;20008;-76
2024/04/20 06:09:03;;;;;;;2.23;0.60;;;6.30;99.90;;;;;;5415501;26;19999;-77
2024/04/20 06:11:28;;;;;;;5.67;0.63;;;6.40;99.90;;;;;;5417208;26;20010;-75
2024/04/20 06:13:54;;;;;;;3.27;0.40;;;6.40;99.90;;;;;;5416808;26;20028;-78
2024/04/20 06:16:20;;;;;;;5.43;0.70;;;6.40;99.90;;;;;;5416234;26;19999;-79
2024/04/20 06:18:45;;;;;;;4.47;0.63;;;6.50;99.90;;;;;;5444868;26;20457;-80
2024/04/20 06:21:11;;;;;;;6.87;0.60;;;6.50;99.90;;;;;;5415584;26;20014;-77
2024/04/20 06:23:36;;;;;;;5.30;0.60;;;6.60;99.90;;;;;;5417411;26;20618;-79
2024/04/20 06:26:02;;;;;;;2.47;0.40;;;6.60;99.90;;;;;;5417593;26;20003;-78
2024/04/20 06:28:28;;;;;;;6.23;0.73;;;6.70;99.90;;;;;;5413629;26;20003;-77
2024/04/20 06:30:55;;;;;;;7.00;0.60;;;6.70;99.90;;;;;;5407122;26;19999;-77
2024/04/20 06:33:21;;;;;;;5.33;1.03;;;6.80;99.90;;;;;;5414701;26;20460;-78
2024/04/20 06:35:47;;;;;;;7.67;0.70;;;6.80;99.90;;;;;;5411300;26;19999;-81
2024/04/20 06:38:13;;;;;;;6.43;0.90;;;6.80;99.90;;;;;;5415144;26;20579;-80
2024/04/20 06:40:39;;;;;;;5.53;0.83;;;6.90;99.90;;;;;;5415843;26;20006;-80
2024/04/20 06:43:04;;;;;;;4.33;0.60;;;6.90;99.90;;;;;;5415809;26;19996;-80
2024/04/20 06:45:30;;;;;;;3.67;0.70;;;7.00;99.90;;;;;;5415037;26;20435;-79
2024/04/20 06:47:57;;;;;;;7.67;0.90;;;7.00;99.90;;;;;;5416943;26;20443;-78
2024/04/20 06:50:25;;;;;;;7.17;0.90;;;7.10;99.90;;;;;;5414986;26;20073;-85
2024/04/20 06:52:51;;;;;;;8.23;0.97;;;7.10;99.90;;;;;;5417863;26;19999;-88
2024/04/20 06:55:17;;;;;;;6.53;0.90;;;7.10;99.90;;;;;;5415956;26;20478;-87
2024/04/20 06:57:42;;;;;;;10.47;0.90;;;7.10;99.90;;;;;;5417410;26;20158;-88
2024/04/20 07:00:10;;;;;;;5.47;1.20;;;7.10;99.90;;;;;;5445778;26;20014;-87
2024/04/20 07:02:35;;;;;;;5.67;0.70;;;7.20;99.90;;;;;;5419153;26;20071;-88
2024/04/20 07:05:01;;;;;;;6.93;0.80;;;7.20;99.90;;;;;;5421191;26;20000;-87
2024/04/20 07:07:26;;;;;;;2.23;0.50;;;7.20;99.90;;;;;;5420357;26;19999;-86
2024/04/20 07:09:52;;;;;;;6.57;0.60;;;7.20;99.90;;;;;;5420457;26;20007;-86
2024/04/20 07:12:18;;;;;;;7.23;0.60;;;7.20;99.90;;;;;;5420407;26;20447;-84
2024/04/20 07:14:44;;;;;;;3.83;0.67;;;7.30;99.90;;;;;;5420748;26;20003;-83
2024/04/20 07:17:09;;;;;;;4.70;0.50;;;7.30;99.90;;;;;;5420359;26;20000;-86
2024/04/20 07:19:35;;;;;;;2.67;0.40;;;7.50;99.90;;;;;;5419013;26;19999;-87
2024/04/20 07:22:02;;;;;;;2.43;0.40;;;7.50;99.90;;;;;;5418345;26;20031;-87
2024/04/20 07:24:27;;;;;;;2.63;0.37;;;7.60;99.90;;;;;;5418013;26;20011;-85
2024/04/20 07:26:53;;;;;;;1.83;0.40;;;7.50;99.90;;;;;;5419572;26;20004;-84
2024/04/20 07:29:18;;;;;;;4.47;0.73;;;7.60;99.90;;;;;;5417419;26;20050;-82
2024/04/20 07:31:45;;;;;;;3.23;0.70;;;7.60;99.90;;;;;;5419426;26;20073;-83
2024/04/20 07:34:11;;;;;;;3.87;0.60;;;7.60;99.90;;;;;;5417100;26;20000;-84
2024/04/20 07:36:37;;;;;;;3.00;0.60;;;7.70;99.90;;;;;;5419307;26;20018;-82
2024/04/20 07:39:03;;;;;;;5.23;0.50;;;7.70;99.90;;;;;;5448049;26;20431;-82
2024/04/20 07:41:28;;;;;;;5.33;0.70;;;7.80;99.90;;;;;;5401658;26;20452;-83
2024/04/20 07:43:56;;;;;;;3.67;0.60;;;7.90;99.90;;;;;;5404101;26;20010;-83
2024/04/20 07:46:21;;;;;;;5.83;0.67;;;7.90;99.90;;;;;;5417987;26;20000;-84
2024/04/20 07:48:48;;;;;;;4.83;0.60;;;7.90;99.90;;;;;;5419627;26;20060;-82
2024/04/20 07:51:14;;;;;;;5.07;0.50;;;8.00;99.90;;;;;;5417086;26;20064;-81
2024/04/20 07:53:40;;;;;;;4.10;0.60;;;8.10;99.90;;;;;;5419217;26;20408;-81
2024/04/20 07:56:06;;;;;;;8.30;1.33;;;8.10;99.90;;;;;;5419229;26;20508;-83
2024/04/20 07:58:31;;;;;;;3.20;0.70;;;8.10;99.90;;;;;;5416276;26;20015;-83
2024/04/20 08:00:58;;;;;;;4.33;0.50;;;8.20;99.90;;;;;;5419215;26;20008;-84
2024/04/20 08:03:23;;;;;;;5.20;0.63;;;8.20;99.90;;;;;;5417709;26;20000;-83
2024/04/20 08:05:49;;;;;;;6.13;1.20;;;8.20;99.90;;;;;;5417146;26;20021;-84
2024/04/20 08:08:15;;;;;;;7.90;0.90;;;8.20;99.90;;;;;;5417177;26;20046;-84
2024/04/20 08:10:40;;;;;;;5.50;0.80;;;8.20;99.90;;;;;;5419014;26;20011;-80
2024/04/20 08:13:06;;;;;;;5.70;0.90;;;8.30;99.90;;;;;;5416807;26;19995;-87
2024/04/20 08:15:32;;;;;;;6.77;0.90;;;8.40;99.90;;;;;;5417262;26;20004;-85
2024/04/20 08:17:57;;;;;;;6.47;0.80;;;8.30;99.90;;;;;;5447231;26;20014;-83
2024/04/20 08:20:23;;;;;;;12.00;1.00;;;8.50;99.90;;;;;;5417020;26;20010;-86
2024/04/20 08:22:49;;;;;;;7.47;0.70;;;8.50;99.90;;;;;;5419248;26;20459;-87
2024/04/20 08:25:14;;;;;;;7.33;1.63;;;8.60;99.90;;;;;;5417675;26;20013;-83
2024/04/20 08:27:40;;;;;;;5.37;0.90;;;8.70;99.90;;;;;;5416711;26;20393;-83
2024/04/20 08:30:06;;;;;;;4.53;0.60;;;8.80;99.90;;;;;;5419052;26;20003;-82
2024/04/20 08:32:31;;;;;;;4.83;0.93;;;8.90;99.90;;;;;;5419097;26;20011;-85
2024/04/20 08:34:57;;;;;;;4.80;0.60;;;9.00;99.90;;;;;;5447507;26;19999;-88
2024/04/20 08:37:23;;;;;;;9.13;1.10;;;9.10;99.90;;;;;;5417414;26;20484;-84
2024/04/20 08:39:48;;;;;;;6.13;0.97;;;9.10;99.90;;;;;;5447232;26;20459;-88
2024/04/20 08:42:33;;;;;;;6.60;1.00;;;9.20;99.90;;;;;;5418938;26;20393;-83
2024/04/20 08:45:01;;;;;;;4.00;0.83;;;9.20;99.90;;;;;;5417724;26;20011;-86
2024/04/20 08:47:30;;;;;;;6.03;0.70;;;9.30;99.90;;;;;;5418924;26;20346;-86
2024/04/20 08:49:57;;;;;;;8.90;0.80;;;9.30;99.90;;;;;;5417281;26;20019;-90
2024/04/20 08:52:25;;;;;;;7.37;0.70;;;9.40;99.90;;;;;;5418491;26;20017;-88
2024/04/20 08:54:51;;;;;;;2.43;0.50;;;9.20;99.90;;;;;;5419072;26;20009;-85
2024/04/20 08:57:18;;;;;;;3.80;0.73;;;9.10;99.90;;;;;;5416931;26;20006;-87
2024/04/20 08:59:43;;;;;;;6.03;1.00;;;9.00;99.90;;;;;;5419022;26;20000;-84
2024/04/20 09:02:24;;;;;;;5.40;0.87;;;9.00;99.90;;;;;;5418890;26;20009;-84
2024/04/20 09:04:50;;;;;;;7.40;1.07;;;9.00;99.90;;;;;;5416848;26;19995;-85
2024/04/20 09:07:16;;;;;;;5.03;0.60;;;9.00;99.90;;;;;;5419028;26;19995;-83
2024/04/20 09:09:43;;;;;;;4.40;0.67;;;9.00;99.90;;;;;;5416686;26;20059;-90
2024/04/20 09:12:08;;;;;;;4.77;1.00;;;9.00;99.90;;;;;;5418905;26;20006;-85
2024/04/20 09:14:34;;;;;;;4.40;0.50;;;9.00;99.90;;;;;;5416960;26;19999;-87
2024/04/20 09:17:00;;;;;;;1.30;0.30;;;9.00;99.90;;;;;;5418426;26;19999;-83
2024/04/20 09:19:25;;;;;;;3.07;0.50;;;9.10;99.90;;;;;;5417834;26;19999;-84
2024/04/20 09:21:51;;;;;;;3.47;0.50;;;9.30;99.90;;;;;;5446450;26;19995;-86
2024/04/20 09:24:16;;;;;;;3.13;0.40;;;9.40;99.90;;;;;;5414871;26;20000;-86
2024/04/20 09:26:52;;;;;;;3.27;0.60;;;9.50;99.90;;;;;;5417121;26;20000;-84
2024/04/20 09:29:19;;;;;;;1.48;0.40;;;9.70;99.90;;;;;;5416673;26;20007;-87
2024/04/20 09:31:52;;;;;;;3.08;0.60;;;9.90;99.90;;;;;;5419032;26;20072;-83
2024/04/20 09:34:25;;;;;;;2.60;0.45;;;10.10;99.90;;;;;;5417458;26;20007;-83
2024/04/20 09:36:51;;;;;;;5.78;0.65;;;10.20;99.90;;;;;;5416680;26;20019;-85
2024/04/20 09:39:17;;;;;;;3.38;0.52;;;10.40;99.90;;;;;;5418620;26;20004;-86
2024/04/20 09:41:51;;;;;;;4.93;0.52;;;10.40;99.90;;;;;;5418367;26;20080;-83
2024/04/20 09:44:17;;;;;;;4.93;0.50;;;10.30;99.50;;;;;;5417312;26;20011;-83
2024/04/20 09:46:48;;;;;;;5.23;0.50;;;10.20;99.20;;;;;;5417243;26;20003;-82
2024/04/20 09:49:15;;;;;;;3.53;0.50;;;10.00;99.10;;;;;;5415500;26;19999;-86
2024/04/20 09:51:46;;;;;;;2.63;0.40;;;9.90;98.60;;;;;;5445670;26;20350;-85
2024/04/20 09:54:19;;;;;;;2.93;0.30;;;9.80;99.00;;;;;;5445232;26;19999;-86
2024/04/20 09:56:47;;;;;;;4.53;0.50;;;9.70;99.30;;;;;;5416044;26;20011;-83
2024/04/20 09:59:13;;;;;;;1.92;0.40;;;9.80;99.70;;;;;;5417837;26;20003;-85
2024/04/20 10:01:39;;;;;;;3.15;0.40;;;9.90;99.70;;;;;;5417720;26;20469;-77
2024/04/20 10:04:06;;;;;;;5.05;0.68;;;10.00;99.80;;;;;;5416231;26;20003;-76
2024/04/20 10:06:32;;;;;;;5.00;0.50;;;10.10;99.20;;;;;;5417695;26;19999;-77
2024/04/20 10:08:59;;;;;;;4.60;0.60;;;10.10;99.20;;;;;;5417030;26;20000;-83
2024/04/20 10:11:27;;;;;;;4.13;0.80;;;10.10;99.10;;;;;;5417274;26;20011;-77
2024/04/20 10:13:55;;;;;;;4.57;0.60;;;10.20;99.00;;;;;;5417236;26;20017;-78
2024/04/20 10:16:21;;;;;;;6.13;0.90;;;10.30;98.90;;;;;;5415462;26;20010;-78
2024/04/20 10:18:47;;;;;;;5.22;0.75;;;10.40;98.50;;;;;;5417285;26;20405;-82
2024/04/20 10:21:16;;;;;;;4.25;0.60;;;10.50;98.20;;;;;;5415678;26;20000;-78
2024/04/20 10:23:45;;;;;;;6.78;0.73;;;10.80;98.60;;;;;;5415159;26;20014;-80
2024/04/20 10:26:14;;;;;;;6.18;0.77;;;11.10;99.00;;;;;;5415317;26;19995;-80
2024/04/20 10:28:40;;;;;;;6.40;0.70;;;11.60;99.60;;;;;;5417201;26;19996;-80
2024/04/20 10:31:06;;;;;;;4.57;0.68;;;12.10;99.90;;;;;;5415209;26;19995;-80
2024/04/20 10:33:32;;;;;;;3.20;0.52;;;12.40;99.50;;;;;;5415280;26;19996;-80
2024/04/20 10:36:06;;;;;;;7.90;0.65;;;12.50;98.60;;;;;;5447249;26;20000;-80
2024/04/20 10:38:32;;;;;;;9.18;1.25;;;12.30;96.80;;;;;;5389751;26;20435;-80
2024/04/20 10:41:13;;;;;;;7.78;1.05;;;12.10;95.80;;;;;;5448731;26;20005;-78
2024/04/20 10:43:39;;;;;;;4.13;0.55;;;11.90;94.80;;;;;;5420484;26;19995;-79
2024/04/20 10:46:05;;;;;;;3.45;0.50;;;11.70;94.30;;;;;;5420324;26;20011;-80
2024/04/20 10:48:41;;;;;;;6.30;0.88;;;11.50;94.10;;;;;;5418540;26;20007;-79
2024/04/20 10:51:10;;;;;;;3.97;0.40;;;11.50;95.10;;;;;;5419689;26;20068;-79
2024/04/20 10:53:40;;;;;;;5.78;0.63;;;11.60;94.80;;;;;;5420332;26;20000;-82
2024/04/20 10:56:08;;;;;;;5.40;0.60;;;11.80;94.40;;;;;;5418527;26;19991;-80
2024/04/20 10:58:37;;;;;;;4.75;0.60;;;11.90;93.80;;;;;;5418674;26;20010;-83
2024/04/20 11:01:03;;;;;;;6.20;0.88;;;11.90;93.60;;;;;;5418485;26;19992;-80
2024/04/20 11:03:31;;;;;;;6.85;0.60;;;12.00;92.60;;;;;;5418194;26;19995;-81
2024/04/20 11:05:58;;;;;;;5.93;0.80;;;12.30;93.40;;;;;;5417786;26;20035;-84
2024/04/20 11:08:25;;;;;;;5.80;0.60;;;12.60;93.40;;;;;;5420360;26;20003;-87
2024/04/20 11:10:53;;;;;;;7.35;1.52;;;13.00;92.10;;;;;;5420137;26;20036;-80
2024/04/20 11:13:19;;;;;;;5.63;0.70;;;13.10;90.60;;;;;;5419680;26;20385;-83
2024/04/20 11:15:47;;;;;;;8.30;0.80;;;13.00;89.80;;;;;;5412532;26;20060;-82
2024/04/20 11:18:14;;;;;;;5.90;0.70;;;12.90;89.10;;;;;;5419072;26;20010;-81
2024/04/20 11:20:40;;;;;;;4.55;0.65;;;12.90;89.90;;;;;;5419315;26;20003;-80
2024/04/20 11:23:06;;;;;;;5.57;0.70;;;12.60;89.50;;;;;;5414602;26;19999;-82
2024/04/20 11:25:33;;;;;;;4.53;0.60;;;12.80;90.80;;;;;;5418328;26;20043;-81
2024/04/20 11:28:00;;;;;;;5.05;0.40;;;13.20;91.40;;;;;;5419066;26;20467;-82
2024/04/20 11:30:26;;;;;;;3.30;0.60;;;13.50;90.50;;;;;;5414609;26;20035;-82
2024/04/20 11:32:59;;;;;;;4.15;0.57;;;13.50;88.60;;;;;;5419185;26;19995;-80
2024/04/20 11:35:28;;;;;;;4.95;0.82;;;13.30;87.20;;;;;;5419830;26;20000;-81
2024/04/20 11:38:04;;;;;;;4.78;0.68;;;13.00;86.70;;;;;;5417905;26;20041;-80
2024/04/20 11:40:34;;;;;;;5.00;0.47;;;12.60;87.00;;;;;;5417989;26;20455;-79
2024/04/20 11:43:01;;;;;;;2.83;0.40;;;12.50;87.70;;;;;;5419625;26;20473;-80
2024/04/20 11:45:26;;;;;;;3.42;0.70;;;12.30;88.20;;;;;;5419604;26;20360;-81
2024/04/20 11:47:53;;;;;;;2.90;0.52;;;12.10;87.80;;;;;;5417397;26;20007;-79
2024/04/20 11:50:19;;;;;;;5.28;0.50;;;11.90;88.20;;;;;;5419421;26;20073;-80
2024/04/20 11:55:42;;;;;;;8.32;0.55;;;11.70;89.00;;;;;;5419514;26;20040;-81
2024/04/20 11:58:11;;;;;;;5.30;0.88;;;11.50;88.40;;;;;;5419296;26;20000;-84
2024/04/20 12:00:37;;;;;;;4.72;0.55;;;11.50;88.80;;;;;;5419958;26;20000;-85
2024/04/20 12:03:04;;;;;;;4.65;0.60;;;11.40;89.40;;;;;;5419832;26;19999;-84
2024/04/20 12:05:30;;;;;;;6.28;1.02;;;11.50;89.60;;;;;;5418949;26;20012;-83
2024/04/20 12:07:55;;;;;;;11.00;1.15;;;11.60;90.10;;;;;;5447036;26;20491;-85
2024/04/20 12:10:21;;;;;;;3.83;0.60;;;12.10;91.10;;;;;;5417648;26;20011;-87
2024/04/20 12:12:47;;;;;;;4.95;0.50;;;12.80;91.40;;;;;;5418247;26;19999;-85
2024/04/20 12:15:13;;;;;;;4.65;0.60;;;13.40;91.50;;;;;;5419638;26;20447;-81
2024/04/20 12:17:39;;;;;;;4.07;1.05;;;14.30;92.50;;;;;;5420136;26;20003;-87
2024/04/20 12:20:07;;;;;;;4.63;0.60;;;15.20;91.90;;;;;;5417901;26;20011;-87
2024/04/20 12:22:33;;;;;;;6.30;1.00;;;15.70;90.10;;;;;;5420912;26;20039;-88
2024/04/20 12:24:58;;;;;;;5.07;0.57;;;15.80;85.40;;;;;;5420108;26;20073;-88
2024/04/20 12:27:24;;;;;;;3.53;0.63;;;15.70;82.90;;;;;;5418427;26;20000;-89
2024/04/20 12:29:50;;;;;;;4.30;0.55;;;15.70;82.20;;;;;;5419768;26;20010;-84
2024/04/20 12:32:19;;;;;;;6.40;1.25;;;15.40;80.70;;;;;;5417285;26;19999;-76
2024/04/20 12:34:45;;;;;;;7.47;1.02;;;15.00;76.60;;;;;;5416720;26;19996;-81
2024/04/20 12:37:10;;;;;;;6.65;0.50;;;14.40;79.20;;;;;;5418749;26;20010;-78
2024/04/20 12:39:36;;;;;;;5.13;0.60;;;13.90;80.00;;;;;;5418989;26;19996;-79
2024/04/20 12:42:03;;;;;;;3.58;0.43;;;13.50;81.10;;;;;;5416802;26;19995;-76
2024/04/20 12:44:32;;;;;;;4.45;0.55;;;13.30;82.00;;;;;;5447319;26;19996;-76
2024/04/20 12:46:57;;;;;;;5.32;0.60;;;13.20;83.00;;;;;;5416714;26;19991;-76
2024/04/20 12:49:23;;;;;;;4.70;1.10;;;13.50;85.40;;;;;;5416721;26;20330;-75
2024/04/20 12:51:49;;;;;;;6.43;0.93;;;14.30;87.60;;;;;;5418486;26;20072;-78
2024/04/20 12:54:14;;;;;;;6.47;0.88;;;14.90;86.60;;;;;;5419107;26;20011;-76